Flight Track Log - Related Links

Times and Time Zones

All times are in EDT time to prevent confusion due to time zone crossing. See the AWE1940 flight status page for this flight to view local times or setup timezone preferences in your user account.

Time Position Orientation Groundspeed Altitude Reporting Facility
EDT Latitude Longitude Course Direction KTS MPH feet Rate Location/Type
Sun 22:32:19 35.2328 -80.9392 72° East 158 182 1,500  Level Atlanta Center
Sun 22:32:37 35.2472 -80.9411 354° North 166 191 2,000 1,538 Climbing Atlanta Center
Sun 22:33:37 35.2839 -80.8992 43° Northeast 236 272 3,500 1,824 Climbing Atlanta Center
Sun 22:34:42 35.2936 -80.7969 83° East 260 299 5,800 2,544 Climbing Atlanta Center
Sun 22:35:42 35.3056 -80.6972 82° East 290 334 8,800 2,700 Climbing Atlanta Center
Sun 22:36:42 35.3153 -80.5925 83° East 305 351 11,200 1,869 Climbing Atlanta Center
Sun 22:37:00 35.3758 -80.3056 72° East  Level FlightAware
Sun 22:39:01 35.3806 -80.3125 74° East 393 452 15,000  Level Washington Center
Sun 22:40:00 35.4239 -80.1647 70° East 417 480 17,200 2,067 Climbing Washington Center
Sun 22:41:00 35.4625 -80.0267 71° East 422 486 19,100 1,850 Climbing Washington Center
Sun 22:42:00 35.4992 -79.8833 73° East 422 486 20,900 1,587 Climbing Washington Center
Sun 22:43:01 35.5356 -79.7372 73° East 432 497 22,300 1,289 Climbing Washington Center
Sun 22:44:01 35.5739 -79.5886 72° East 442 509 23,500 1,388 Climbing Washington Center
Sun 22:45:02 35.6189 -79.4297 71° East 473 544 25,100 1,412 Climbing Washington Center
Sun 22:46:00 35.6756 -79.2867 64° Northeast 473 544 26,300 1,160 Climbing Washington Center
Sun 22:47:01 35.7364 -79.1336 64° Northeast 479 551 27,400 1,000 Climbing Washington Center
Sun 22:48:00 35.7972 -78.9800 64° Northeast 489 563 28,300 900 Climbing Washington Center
Sun 22:49:01 35.8600 -78.8186 64° Northeast 502 578 29,200 934 Climbing Washington Center
Sun 22:50:02 35.9264 -78.6803 59° Northeast 507 583 30,200 1,140 Climbing Washington Center
Sun 22:51:02 36.0011 -78.5267 59° Northeast 513 590 31,500 1,119 Climbing Washington Center
Sun 22:52:00 36.0736 -78.3750 59° Northeast 513 590 32,400 966 Climbing Washington Center
Sun 22:53:00 36.1481 -78.2208 59° Northeast 519 597 33,400 1,041 Climbing Washington Center
Sun 22:54:01 36.2306 -78.0769 55° Northeast 519 597 34,500 800 Climbing Washington Center
Sun 22:55:00 36.3247 -77.9508 47° Northeast 509 586 35,000 248 Climbing Washington Center
Sun 22:56:02 36.4278 -77.8094 48° Northeast 504 580 35,000  Level Washington Center
Sun 22:57:01 36.5175 -77.6803 49° Northeast 497 572 35,000  Level Washington Center
Sun 22:58:02 36.6136 -77.5483 48° Northeast 503 579 35,000  Level Washington Center
Sun 22:59:00 36.7056 -77.4183 49° Northeast 503 579 35,000  Level Washington Center
Sun 23:00:00 36.7906 -77.3011 48° Northeast 503 579 35,000  Level Washington Center
Sun 23:01:00 36.8800 -77.1758 48° Northeast 503 579 35,000  Level Washington Center
Sun 23:02:00 36.9736 -77.0425 49° Northeast 503 579 35,000  Level Washington Center
Sun 23:03:00 37.0647 -76.9114 49° Northeast 503 579 35,000  Level Washington Center
Sun 23:04:01 37.1558 -76.7803 49° Northeast 503 579 35,000  Level Washington Center
Sun 23:05:00 37.2489 -76.6486 48° Northeast 503 579 35,000  Level Washington Center
Sun 23:06:00 37.3394 -76.5192 49° Northeast 503 579 35,000  Level Washington Center
Sun 23:07:01 37.4406 -76.3767 48° Northeast 503 579 35,000  Level Washington Center
Sun 23:08:00 37.5414 -76.2597 43° Northeast 497 572 35,000  Level Washington Center
Sun 23:09:01 37.6506 -76.1583 36° Northeast 487 560 35,000  Level Washington Center
Sun 23:10:03 37.7592 -76.0647 34° Northeast 482 555 35,000  Level Washington Center
Sun 23:11:00 37.8661 -75.9600 38° Northeast 482 555 35,000  Level Washington Center
Sun 23:12:00 37.9728 -75.8606 36° Northeast 482 555 35,000  Level Washington Center
Sun 23:13:02 38.0750 -75.7606 38° Northeast 482 555 35,000  Level Washington Center
Sun 23:14:00 38.1856 -75.6578 36° Northeast 482 555 35,000  Level Washington Center
Sun 23:15:00 38.2919 -75.5572 37° Northeast 482 555 35,000  Level Washington Center
Sun 23:16:02 38.4067 -75.4831 27° Northeast 469 540 35,000  Level Washington Center
Sun 23:17:00 38.5233 -75.4139 25° Northeast 459 528 35,000  Level Washington Center
Sun 23:18:01 38.6378 -75.3339 29° Northeast 459 528 35,000  Level Washington Center
Sun 23:19:02 38.7564 -75.2561 27° Northeast 459 528 35,000 -50 Level Washington Center
Sun 23:20:02 38.8708 -75.1783 28° Northeast 459 528 34,900 -1,450 Descending Washington Center
Sun 23:21:02 38.9789 -75.1136 25° Northeast 469 540 32,100 -2,529 Descending Washington Center
Sun 23:22:03 39.0975 -75.0325 28° Northeast 469 540 29,800 -1,613 Descending Washington Center
Sun 23:23:01 39.2097 -74.9542 28° Northeast 464 534 28,900 -284 Descending Washington Center
Sun 23:24:52 39.4167 -74.8153 27° Northeast 451 519 29,000 35 Climbing New Center
Sun 23:25:52 39.5425 -74.7308 27° Northeast 444 511 29,000  Level New Center
Sun 23:26:54 39.6428 -74.6639 27° Northeast 449 517 29,000  Level New Center
Sun 23:27:52 39.7667 -74.5761 29° Northeast 454 522 29,000  Level New Center
Sun 23:28:54 39.8794 -74.5011 27° Northeast 454 522 29,000 -50 Level New Center
Sun 23:29:53 39.9947 -74.4206 28° Northeast 459 528 28,900 -706 Descending New Center
Sun 23:30:53 40.1144 -74.3833 13° North 454 522 27,600 -994 Descending New Center
Sun 23:32:48 40.3400 -74.3350 North 435 501 26,000 -549 Descending Boston Center
Sun 23:33:48 40.4614 -74.3083 North 429 494 26,000  Level Boston Center
Sun 23:34:48 40.5972 -74.2767 10° North 434 499 26,000  Level Boston Center
Sun 23:35:48 40.7206 -74.2528 North 439 505 26,000  Level Boston Center
Sun 23:36:48 40.8336 -74.2342 North 445 512 26,000  Level Boston Center
Sun 23:37:48 40.9528 -74.2072 10° North 445 512 26,000  Level Boston Center
Sun 23:38:48 41.0781 -74.1803 North 445 512 26,000  Level Boston Center
Sun 23:39:48 41.1994 -74.1533 North 445 512 26,000  Level Boston Center
Sun 23:40:48 41.3208 -74.1233 11° North 445 512 26,000  Level Boston Center
Sun 23:41:48 41.4419 -74.0961 10° North 445 512 26,000 -700 Level Boston Center
Sun 23:42:48 41.5675 -74.0661 10° North 452 520 24,600 -1,900 Descending Boston Center
Sun 23:43:48 41.6847 -74.0439 North 442 509 22,200 -2,450 Descending Boston Center
Sun 23:44:48 41.8081 -74.0164 North 436 502 19,700 -2,429 Descending Boston Center
Sun 23:45:12 41.8519 -74.0092 North 417 480 18,800 -1,800 Descending Boston Center
Sun 23:45:48 41.9083 -73.9939 11° North 404 465 17,900 -1,938 Descending Boston Center
Sun 23:46:48 42.0253 -73.9661 10° North 390 449 15,700 -2,150 Descending Boston Center
Sun 23:47:48 42.1194 -73.9486 North 385 443 13,600 -2,050 Descending Boston Center
Sun 23:48:48 42.2342 -73.9486 360° North 380 437 11,600 -1,400 Descending Boston Center
Sun 23:49:48 42.3175 -73.9536 357° North 349 402 10,800 -1,650 Descending Boston Center
Sun 23:50:48 42.4069 -73.9586 358° North 305 351 8,300 -2,400 Descending Boston Center
Sun 23:51:48 42.4819 -73.9658 356° North 294 338 6,000 -2,150 Descending Boston Center
Sun 23:52:48 42.5694 -73.9567 North 285 328 4,000 -1,000 Descending Boston Center
Sun 23:53:48 42.6406 -73.9472 North 275 316 4,000 -50 Level Boston Center
Sun 23:54:48 42.7031 -73.9375 North 246 283 3,900 -500 Descending Boston Center
Sun 23:55:48 42.7533 -73.9275 North 232 267 3,000 -900 Descending Boston Center
Sun 23:56:48 42.8078 -73.9117 12° North 212 244 2,100 -469 Descending Boston Center
Sun 23:57:56 42.8644 -73.8706 28° Northeast 195 224 2,000 -250 Descending Boston Center
Sun 23:58:48 42.8739 -73.7744 82° East 436 502 1,600 -462 Descending Boston Center

Login

Don't have an account? Register now (free) for customized features, flight alerts, and more!